.
WxDataArchive / Data Records for 2015-12-01
2015-11-30 December 2015 2015-12-02

Data Records for Tuesday, 01 December 2015

Time	Temp	Chill	HIndex	Humid	Dewpt	 Wind 	HiWind	WindDir	Rain 	Barom
-----	----	-----	------	-----	-----	------	------	-------	-----	-----
00:00	40.5	40.5	40.5	91	38.1	3	7	112	0.00	29.942 
00:05	40.5	40.5	40.5	91	38.1	3	9	90	0.00	29.942 
00:10	40.5	40.5	40.5	91	38.1	3	10	90	0.00	29.942 
00:15	40.6	40.6	40.6	91	38.2	3	7	112	0.00	29.941 
00:20	40.6	38.0	40.6	91	38.2	4	10	112	0.00	29.941 
00:25	40.6	40.6	40.6	91	38.2	3	6	112	0.00	29.941 
00:30	40.6	40.6	40.6	91	38.2	3	7	90	0.00	29.940 
00:35	40.6	38.0	40.6	91	38.2	4	6	90	0.00	29.940 
00:40	40.6	40.6	40.6	92	38.5	3	8	90	0.00	29.940 
00:45	40.6	40.6	40.6	92	38.5	3	7	90	0.00	29.940 
00:50	40.6	40.6	40.6	92	38.5	3	6	90	0.00	29.940 
00:55	40.5	40.5	40.5	92	38.4	3	6	90	0.00	29.940 
01:00	40.5	37.9	40.5	92	38.4	4	9	90	0.00	29.897 
01:05	40.3	40.3	40.3	92	38.2	3	7	90	0.00	29.897 
01:10	40.3	40.3	40.3	93	38.4	2	6	112	0.00	29.897 
01:15	40.3	40.3	40.3	93	38.4	2	5	90	0.00	29.906 
01:20	40.3	40.3	40.3	97	39.5	3	7	112	0.00	29.906 
01:25	40.3	40.3	40.3	93	38.4	3	7	112	0.00	29.906 
01:30	40.3	40.3	40.3	93	38.4	3	6	68	0.00	29.909 
01:35	40.3	40.3	40.3	94	38.7	1	5	68	0.00	29.909 
01:40	40.3	40.3	40.3	94	38.7	2	5	112	0.00	29.909 
01:45	40.3	40.3	40.3	94	38.7	1	4	90	0.00	29.898 
01:50	40.5	40.5	40.5	94	38.9	1	3	90	0.00	29.898 
01:55	40.5	40.5	40.5	94	38.9	1	4	90	0.00	29.898 
02:00	40.5	40.5	40.5	94	38.9	1	5	90	0.00	29.893 
02:05	40.5	40.5	40.5	94	38.9	1	4	112	0.00	29.893 
02:10	40.5	40.5	40.5	94	38.9	2	6	112	0.00	29.893 
02:15	40.5	40.5	40.5	94	38.9	2	5	90	0.00	29.891 
02:20	40.5	40.5	40.5	94	38.9	3	7	112	0.00	29.891 
02:25	40.5	40.5	40.5	94	38.9	3	5	112	0.00	29.891 
02:30	40.6	40.6	40.6	95	39.3	3	6	90	0.00	29.882 
02:35	40.6	40.6	40.6	95	39.3	3	6	112	0.00	29.882 
02:40	40.6	40.6	40.6	95	39.3	3	6	90	0.00	29.882 
02:45	40.6	40.6	40.6	95	39.3	3	5	90	0.00	29.887 
02:50	40.6	40.6	40.6	95	39.3	2	5	90	0.00	29.887 
02:55	40.6	40.6	40.6	95	39.3	2	5	112	0.00	29.887 
03:00	40.6	40.6	40.6	95	39.3	1	4	90	0.00	29.891 
03:05	40.8	40.8	40.8	95	39.5	2	5	112	0.00	29.891 
03:10	40.8	40.8	40.8	95	39.5	2	4	112	0.00	29.891 
03:15	40.8	40.8	40.8	95	39.5	2	3	90	0.00	29.879 
03:20	40.8	40.8	40.8	95	39.5	2	5	90	0.00	29.879 
03:25	40.8	40.8	40.8	95	39.5	1	3	90	0.00	29.879 
03:30	40.9	40.9	40.9	95	39.6	1	3	90	0.00	29.873 
03:35	40.9	40.9	40.9	95	39.6	1	4	90	0.00	29.873 
03:40	40.9	40.9	40.9	95	39.6	1	4	90	0.00	29.873 
03:45	40.9	40.9	40.9	95	39.6	1	3	90	0.00	29.864 
03:50	41.1	41.1	41.1	95	39.8	1	2	90	0.01	29.864 
03:55	41.1	41.1	41.1	95	39.8	1	5	90	0.00	29.864 
04:00	41.1	41.1	41.1	95	39.8	1	3	90	0.00	29.860 
04:05	41.1	41.1	41.1	95	39.8	1	3	90	0.00	29.860 
04:10	41.1	41.1	41.1	96	40.0	1	4	90	0.00	29.860 
04:15	41.2	41.2	41.2	95	39.9	2	4	112	0.00	29.865 
04:20	41.2	41.2	41.2	96	40.1	1	3	112	0.00	29.865 
04:25	41.2	41.2	41.2	96	40.1	1	3	112	0.00	29.865 
04:30	41.2	41.2	41.2	96	40.1	1	4	112	0.00	29.860 
04:35	41.3	41.3	41.3	96	40.2	1	4	112	0.00	29.860 
04:40	41.3	41.3	41.3	96	40.2	1	3	90	0.00	29.860 
04:45	41.3	41.3	41.3	96	40.2	1	4	90	0.00	29.848 
04:50	41.3	41.3	41.3	96	40.2	2	4	112	0.00	29.848 
04:55	41.3	41.3	41.3	96	40.2	1	4	112	0.00	29.848 
05:00	41.5	41.5	41.5	96	40.4	2	4	112	0.00	29.843 
05:05	41.5	41.5	41.5	96	40.4	1	4	112	0.00	29.843 
05:10	41.5	41.5	41.5	96	40.4	1	5	112	0.00	29.843 
05:15	41.5	41.5	41.5	96	40.4	1	3	68	0.00	29.829 
05:20	41.5	41.5	41.5	96	40.4	1	5	112	0.00	29.829 
05:25	41.5	41.5	41.5	96	40.4	1	5	90	0.00	29.829 
05:30	41.5	41.5	41.5	96	40.4	1	2	68	0.00	29.828 
05:35	41.6	41.6	41.6	96	40.5	1	3	68	0.00	29.828 
05:40	41.6	41.6	41.6	96	40.5	2	6	112	0.00	29.828 
05:45	41.8	41.8	41.8	96	40.7	0	2	90	0.00	29.829 
05:50	41.8	41.8	41.8	96	40.7	1	4	90	0.00	29.829 
05:55	41.9	41.9	41.9	96	40.8	0	2	90	0.00	29.829 
06:00	41.9	41.9	41.9	96	40.8	0	2	90	0.00	29.828 
06:05	42.1	42.1	42.1	96	41.0	0	2	90	0.00	29.828 
06:10	42.1	42.1	42.1	96	41.0	0	3	90	0.00	29.828 
06:15	42.1	42.1	42.1	96	41.0	0	1	90	0.01	29.831 
06:20	42.1	42.1	42.1	96	41.0	0	0	---	0.00	29.831 
06:25	42.1	42.1	42.1	96	41.0	0	1	90	0.00	29.831 
06:30	42.2	42.2	42.2	96	41.1	0	2	90	0.00	29.817 
06:35	42.2	42.2	42.2	96	41.1	0	2	90	0.00	29.817 
06:40	42.2	42.2	42.2	96	41.1	0	0	---	0.00	29.817 
06:45	42.3	42.3	42.3	96	41.2	0	0	---	0.00	29.819 
06:50	42.3	42.3	42.3	96	41.2	0	1	90	0.00	29.819 
06:55	42.3	42.3	42.3	96	41.2	0	0	---	0.00	29.819 
07:00	42.5	42.5	42.5	96	41.4	0	0	---	0.00	29.815 
07:05	42.5	42.5	42.5	96	41.4	0	0	---	0.00	29.815 
07:10	42.5	42.5	42.5	96	41.4	0	0	---	0.00	29.815 
07:15	42.5	42.5	42.5	96	41.4	0	0	---	0.01	29.821 
07:20	42.6	42.6	42.6	96	41.5	0	1	90	0.00	29.821 
07:25	42.6	42.6	42.6	96	41.5	0	0	---	0.00	29.821 
07:30	42.6	42.6	42.6	96	41.5	0	0	---	0.00	29.828 
07:35	42.8	42.8	42.8	96	41.7	0	0	---	0.01	29.828 
07:40	42.8	42.8	42.8	96	41.7	0	0	---	0.00	29.828 
07:45	42.9	42.9	42.9	96	41.8	0	0	---	0.00	29.829 
07:50	43.1	43.1	43.1	96	42.0	0	0	---	0.00	29.829 
07:55	43.1	43.1	43.1	96	42.0	0	0	---	0.00	29.829 
08:00	43.2	43.2	43.2	96	42.1	0	1	90	0.00	29.829 
08:05	43.2	43.2	43.2	96	42.1	0	0	---	0.00	29.829 
08:10	43.3	43.3	43.3	96	42.2	0	0	---	0.00	29.829 
08:15	43.3	43.3	43.3	96	42.2	0	0	---	0.00	29.831 
08:20	43.3	43.3	43.3	96	42.2	0	0	---	0.00	29.831 
08:25	43.5	43.5	43.5	96	42.4	0	0	---	0.00	29.831 
08:30	43.5	43.5	43.5	96	42.4	0	0	---	0.00	29.830 
08:35	43.6	43.6	43.6	96	42.5	0	0	---	0.00	29.830 
08:40	43.8	43.8	43.8	96	42.7	0	2	90	0.00	29.830 
08:45	43.8	43.8	43.8	96	42.7	0	0	---	0.00	29.822 
08:50	43.9	43.9	43.9	96	42.8	0	0	---	0.00	29.822 
08:55	44.1	44.1	44.1	96	43.0	0	0	---	0.00	29.822 
09:00	44.1	44.1	44.1	96	43.0	0	0	---	0.00	29.818 
09:05	44.2	44.2	44.2	96	43.1	0	0	---	0.01	29.818 
09:10	44.5	44.5	44.5	96	43.4	0	0	---	0.00	29.818 
09:15	44.6	44.6	44.6	96	43.5	0	0	---	0.00	29.817 
09:20	44.8	44.8	44.8	96	43.7	0	0	---	0.00	29.817 
09:25	45.1	45.1	45.1	96	44.0	0	0	---	0.00	29.817 
09:30	45.2	45.2	45.2	96	44.1	0	0	---	0.00	29.816 
09:35	45.5	45.5	45.5	96	44.4	0	0	---	0.00	29.816 
09:40	45.7	45.7	45.7	96	44.6	0	1	90	0.00	29.816 
09:45	45.8	45.8	45.8	96	44.7	0	1	90	0.00	29.825 
09:50	46.0	46.0	46.0	96	44.9	0	1	90	0.00	29.825 
09:55	46.1	46.1	46.1	96	45.0	0	2	90	0.00	29.825 
10:00	46.1	46.1	46.1	96	45.0	0	1	90	0.00	29.828 
10:05	46.2	46.2	46.2	96	45.1	0	1	90	0.00	29.828 
10:10	46.4	46.4	46.4	97	45.6	0	2	90	0.00	29.828 
10:15	46.4	46.4	46.4	96	45.3	0	3	90	0.00	29.828 
10:20	46.4	46.4	46.4	96	45.3	1	3	90	0.00	29.828 
10:25	46.4	46.4	46.4	96	45.3	0	3	90	0.00	29.828 
10:30	46.5	46.5	46.5	96	45.4	0	1	90	0.00	29.826 
10:35	46.5	46.5	46.5	96	45.4	1	3	270	0.00	29.826 
10:40	46.5	46.5	46.5	96	45.4	0	2	270	0.00	29.826 
10:45	46.7	46.7	46.7	96	45.6	0	2	270	0.00	29.828 
10:50	46.8	46.8	46.8	96	45.7	1	6	270	0.00	29.828 
10:55	47.0	47.0	47.0	96	45.9	0	4	248	0.00	29.828 
11:00	47.0	47.0	47.0	96	45.9	0	2	248	0.00	29.828 
11:05	47.1	47.1	47.1	96	46.0	0	2	248	0.00	29.828 
11:10	47.1	47.1	47.1	96	46.0	0	2	248	0.00	29.828 
11:15	47.4	47.4	47.4	96	46.3	0	3	248	0.00	29.827 
11:20	47.6	47.6	47.6	96	46.5	1	6	248	0.00	29.827 
11:25	47.6	47.6	47.6	96	46.5	1	4	248	0.00	29.827 
11:30	47.6	47.6	47.6	96	46.5	1	4	248	0.00	29.830 
11:35	47.6	47.6	47.6	96	46.5	2	5	248	0.00	29.830 
11:40	47.6	47.6	47.6	96	46.5	1	4	248	0.00	29.830 
11:45	47.6	47.6	47.6	96	46.5	1	5	248	0.00	29.829 
11:50	47.7	47.7	47.7	95	46.3	1	3	225	0.00	29.829 
11:55	47.7	47.7	47.7	95	46.3	1	6	248	0.00	29.829 
12:00	47.6	47.6	47.6	94	46.0	1	5	248	0.00	29.826 
12:05	47.3	47.3	47.3	93	45.4	3	6	248	0.00	29.826 
12:10	47.3	47.3	47.3	92	45.1	1	4	270	0.00	29.826 
12:15	47.4	47.4	47.4	91	44.9	2	4	270	0.00	29.828 
12:20	47.6	47.6	47.6	90	44.8	1	3	270	0.00	29.828 
12:25	47.6	47.6	47.6	89	44.5	2	5	248	0.00	29.828 
12:30	47.7	47.7	47.7	88	44.3	1	3	248	0.00	29.824 
12:35	47.9	47.9	47.9	87	44.2	1	5	248	0.00	29.824 
12:40	48.0	48.0	48.0	85	43.7	1	5	248	0.00	29.824 
12:45	48.0	48.0	48.0	84	43.4	1	4	248	0.00	29.813 
12:50	48.2	48.2	48.2	83	43.3	1	3	248	0.00	29.813 
12:55	48.3	48.3	48.3	83	43.4	1	3	248	0.00	29.813 
13:00	48.2	48.2	48.2	82	43.0	1	4	248	0.00	29.810 
13:05	48.3	48.3	48.3	82	43.1	1	3	248	0.00	29.810 
13:10	48.3	48.3	48.3	81	42.7	1	3	248	0.00	29.810 
13:15	48.3	48.3	48.3	80	42.4	1	5	248	0.00	29.810 
13:20	48.3	48.3	48.3	79	42.1	1	6	248	0.00	29.810 
13:25	48.5	48.5	48.5	79	42.3	1	3	248	0.00	29.810 
13:30	48.5	48.5	48.5	78	42.0	1	4	292	0.00	29.808 
13:35	48.3	48.3	48.3	78	41.8	1	4	292	0.00	29.808 
13:40	48.2	48.2	48.2	79	42.0	1	2	248	0.00	29.808 
13:45	48.0	48.0	48.0	79	41.8	1	3	248	0.00	29.811 
13:50	48.0	48.0	48.0	80	42.1	0	2	248	0.00	29.811 
13:55	47.9	47.9	47.9	80	42.0	1	3	248	0.00	29.811 
14:00	47.9	47.9	47.9	79	41.7	1	6	248	0.00	29.812 
14:05	47.7	47.7	47.7	78	41.2	1	4	248	0.00	29.812 
14:10	47.7	47.7	47.7	77	40.8	1	5	248	0.00	29.812 
14:15	47.7	47.7	47.7	76	40.5	1	5	248	0.00	29.813 
14:20	47.6	47.6	47.6	77	40.8	1	4	248	0.00	29.813 
14:25	47.3	47.3	47.3	77	40.5	2	5	270	0.00	29.813 
14:30	47.0	47.0	47.0	78	40.5	1	4	270	0.00	29.818 
14:35	47.0	47.0	47.0	78	40.5	1	3	270	0.00	29.818 
14:40	47.0	47.0	47.0	78	40.5	1	3	270	0.00	29.818 
14:45	47.0	47.0	47.0	77	40.2	1	3	270	0.00	29.824 
14:50	47.0	47.0	47.0	77	40.2	1	4	270	0.00	29.824 
14:55	47.0	47.0	47.0	77	40.2	0	2	248	0.00	29.824 
15:00	47.0	47.0	47.0	76	39.8	2	4	248	0.00	29.826 
15:05	47.0	47.0	47.0	76	39.8	1	2	270	0.00	29.826 
15:10	46.8	46.8	46.8	75	39.3	1	3	270	0.00	29.826 
15:15	46.7	46.7	46.7	74	38.9	1	4	270	0.00	29.826 
15:20	46.8	46.8	46.8	75	39.3	1	3	270	0.00	29.826 
15:25	46.8	46.8	46.8	74	39.0	1	4	248	0.00	29.826 
15:30	46.7	46.7	46.7	74	38.9	1	3	248	0.00	29.828 
15:35	46.7	46.7	46.7	75	39.2	1	4	248	0.00	29.828 
15:40	46.4	46.4	46.4	75	38.9	1	3	248	0.00	29.828 
15:45	46.4	46.4	46.4	75	38.9	0	2	248	0.00	29.830 
15:50	46.1	46.1	46.1	73	37.9	1	3	248	0.00	29.830 
15:55	46.1	46.1	46.1	73	37.9	0	2	248	0.00	29.830 
16:00	46.0	46.0	46.0	73	37.8	0	1	248	0.00	29.834 
16:05	45.8	45.8	45.8	72	37.3	0	2	248	0.00	29.834 
16:10	45.8	45.8	45.8	72	37.3	0	2	248	0.00	29.834 
16:15	45.7	45.7	45.7	73	37.5	0	4	248	0.00	29.841 
16:20	45.5	45.5	45.5	72	37.0	1	4	248	0.00	29.841 
16:25	45.4	45.4	45.4	72	36.9	1	3	248	0.00	29.841 
16:30	45.2	45.2	45.2	72	36.7	0	3	248	0.00	29.840 
16:35	45.1	45.1	45.1	72	36.6	1	3	248	0.00	29.840 
16:40	44.9	44.9	44.9	73	36.8	1	4	248	0.00	29.840 
16:45	44.9	44.9	44.9	74	37.1	0	2	270	0.00	29.842 
16:50	44.9	44.9	44.9	74	37.1	0	3	270	0.00	29.842 
16:55	44.8	44.8	44.8	75	37.4	0	1	270	0.00	29.842 
17:00	44.6	44.6	44.6	74	36.8	1	4	248	0.00	29.845 
17:05	44.2	44.2	44.2	73	36.1	1	3	248	0.00	29.845 
17:10	43.9	43.9	43.9	72	35.5	0	1	248	0.00	29.845 
17:15	43.6	43.6	43.6	73	35.5	0	1	248	0.00	29.847 
17:20	43.3	43.3	43.3	73	35.2	0	2	248	0.00	29.847 
17:25	43.1	43.1	43.1	73	35.0	0	1	248	0.00	29.847 
17:30	42.8	42.8	42.8	74	35.1	0	3	248	0.00	29.852 
17:35	42.5	42.5	42.5	75	35.1	0	1	248	0.00	29.852 
17:40	42.2	42.2	42.2	75	34.9	0	2	248	0.00	29.852 
17:45	42.1	42.1	42.1	76	35.1	0	1	248	0.00	29.862 
17:50	41.8	41.8	41.8	76	34.8	0	1	248	0.00	29.862 
17:55	41.5	41.5	41.5	77	34.8	0	1	248	0.00	29.862 
18:00	41.3	41.3	41.3	77	34.6	0	1	248	0.00	29.869 
18:05	41.2	41.2	41.2	77	34.5	0	2	248	0.00	29.869 
18:10	41.1	41.1	41.1	78	34.8	0	1	248	0.00	29.869 
18:15	40.9	40.9	40.9	78	34.6	0	1	248	0.00	29.878 
18:20	40.6	40.6	40.6	78	34.3	0	1	248	0.00	29.878 
18:25	40.5	40.5	40.5	79	34.5	0	1	248	0.00	29.878 
18:30	40.3	40.3	40.3	79	34.3	0	1	248	0.00	29.881 
18:35	40.1	40.1	40.1	79	34.1	0	1	248	0.00	29.881 
18:40	39.9	39.9	39.9	80	34.2	0	1	248	0.00	29.881 
18:45	39.8	39.8	39.8	80	34.1	0	1	248	0.00	29.885 
18:50	39.6	39.6	39.6	80	33.9	0	1	248	0.00	29.885 
18:55	39.5	39.5	39.5	80	33.9	0	0	---	0.00	29.885 
19:00	39.3	39.3	39.3	80	33.7	0	0	---	0.00	29.894 
19:05	39.1	39.1	39.1	80	33.5	0	0	---	0.00	29.894 
19:10	38.6	38.6	38.6	81	33.3	0	0	---	0.00	29.894 
19:15	38.3	38.3	38.3	81	33.0	0	0	---	0.00	29.897 
19:20	37.9	37.9	37.9	81	32.6	0	0	---	0.00	29.897 
19:25	37.6	37.6	37.6	82	32.6	0	0	---	0.00	29.897 
19:30	37.2	37.2	37.2	82	32.2	0	0	---	0.00	29.895 
19:35	36.8	36.8	36.8	83	32.1	0	0	---	0.00	29.895 
19:40	36.5	36.5	36.5	84	32.1	0	0	---	0.00	29.895 
19:45	36.0	36.0	36.0	84	31.6	0	0	---	0.00	29.898 
19:50	35.8	35.8	35.8	84	31.4	0	0	---	0.00	29.898 
19:55	35.3	35.3	35.3	84	31.0	0	0	---	0.00	29.898 
20:00	35.0	35.0	35.0	84	30.7	0	0	---	0.00	29.901 
20:05	34.7	34.7	34.7	84	30.4	0	0	---	0.00	29.901 
20:10	34.4	34.4	34.4	85	30.4	0	0	---	0.00	29.901 
20:15	34.3	34.3	34.3	85	30.3	0	0	---	0.00	29.899 
20:20	34.0	34.0	34.0	85	30.0	0	0	---	0.00	29.899 
20:25	33.7	33.7	33.7	86	30.0	0	0	---	0.00	29.899 
20:30	33.4	33.4	33.4	86	29.7	0	0	---	0.00	29.896 
20:35	33.2	33.2	33.2	86	29.5	0	0	---	0.00	29.896 
20:40	33.1	33.1	33.1	86	29.4	0	0	---	0.00	29.896 
20:45	32.9	32.9	32.9	87	29.5	0	0	---	0.00	29.891 
20:50	32.9	32.9	32.9	87	29.5	0	0	---	0.00	29.891 
20:55	33.1	33.1	33.1	88	29.9	0	0	---	0.00	29.891 
21:00	33.1	33.1	33.1	88	29.9	0	0	---	0.00	29.888 
21:05	33.2	33.2	33.2	88	30.0	0	0	---	0.00	29.888 
21:10	33.2	33.2	33.2	89	30.3	0	0	---	0.00	29.888 
21:15	33.4	33.4	33.4	89	30.5	0	0	---	0.00	29.882 
21:20	33.4	33.4	33.4	89	30.5	0	0	---	0.00	29.882 
21:25	33.5	33.5	33.5	89	30.6	0	0	---	0.00	29.882 
21:30	33.4	33.4	33.4	89	30.5	0	0	---	0.00	29.885 
21:35	33.2	33.2	33.2	90	30.6	0	0	---	0.00	29.885 
21:40	33.1	33.1	33.1	90	30.5	0	0	---	0.00	29.885 
21:45	32.9	32.9	32.9	90	30.3	0	0	---	0.00	29.885 
21:50	32.7	32.7	32.7	90	30.1	0	0	---	0.00	29.885 
21:55	32.5	32.5	32.5	90	29.9	0	0	---	0.00	29.885 
22:00	32.2	32.2	32.2	90	29.6	0	0	---	0.00	29.881 
22:05	31.9	31.9	31.9	90	29.3	0	0	---	0.00	29.881 
22:10	31.6	31.6	31.6	90	29.0	0	0	---	0.00	29.881 
22:15	31.5	31.5	31.5	90	28.9	0	0	---	0.00	29.883 
22:20	31.2	31.2	31.2	90	28.6	0	0	---	0.00	29.883 
22:25	30.9	30.9	30.9	90	28.3	0	0	---	0.00	29.883 
22:30	30.7	30.7	30.7	90	28.1	0	0	---	0.00	29.883 
22:35	30.4	30.4	30.4	90	27.8	0	0	---	0.00	29.883 
22:40	30.3	30.3	30.3	90	27.7	0	0	---	0.00	29.883 
22:45	30.1	30.1	30.1	90	27.5	0	0	---	0.00	29.884 
22:50	30.0	30.0	30.0	91	27.7	0	0	---	0.00	29.884 
22:55	30.0	30.0	30.0	91	27.7	0	0	---	0.00	29.884 
23:00	29.8	29.8	29.8	91	27.5	0	0	---	0.00	29.883 
23:05	29.7	29.7	29.7	91	27.4	0	0	---	0.00	29.883 
23:10	29.4	29.4	29.4	91	27.1	0	0	---	0.00	29.883 
23:15	29.4	29.4	29.4	91	27.1	0	0	---	0.00	29.883 
23:20	29.4	29.4	29.4	91	27.1	0	0	---	0.00	29.883 
23:25	29.4	29.4	29.4	91	27.1	0	0	---	0.00	29.883 
23:30	29.3	29.3	29.3	91	27.0	0	0	---	0.00	29.884 
23:35	29.1	29.1	29.1	91	26.8	0	0	---	0.00	29.884 
23:40	29.0	29.0	29.0	91	26.7	0	0	---	0.00	29.884 
23:45	28.8	28.8	28.8	91	26.5	0	0	---	0.00	29.884 
23:50	28.8	28.8	28.8	92	26.8	0	0	---	0.00	29.884 
23:55	28.8	28.8	28.8	92	26.8	0	0	---	0.00	29.884 

CoCoRaHS
IN-AL-39
A2 Web Hosting
Creative Commons License
GoDaddy
search engine by freefind advanced

loaded 2018-11-18 11:20:01 • last modified 2010-11-18 10:43:29
Privacy PolicyDisclaimer
• wx.awcolley.com is powered by PmWiki v.2002016 •
• all content (unless otherwise noted) © 2018 A W Colley